Time;durP1;ratioP1;P1;durP2;ratioP2;P2;SDS_P1;SDS_P2;PMS_P1;PMS_P2;Temp;Humidity;BMP_temperature;BMP_pressure;BME280_temperature;BME280_humidity;BME280_pressure;Samples;Min_cycle;Max_cycle;Signal;HPM_P1;HPM_P2
2023/08/18 00:02:15;;;;;;;;;;;28.40;56.10;;;;;;5085698;27;42944;-80
2023/08/18 00:04:41;;;;;;;;;;;28.30;55.30;;;;;;5084580;27;43041;-79
2023/08/18 00:07:07;;;;;;;;;;;28.40;55.60;;;;;;5088452;27;43630;-82
2023/08/18 00:09:33;;;;;;;;;;;28.30;55.60;;;;;;5084441;27;43086;-79
2023/08/18 00:11:58;;;;;;;;;;;28.30;56.20;;;;;;5085534;27;43158;-79
2023/08/18 00:14:24;;;;;;;;;;;28.30;56.10;;;;;;5086121;27;42989;-79
2023/08/18 00:16:49;;;;;;;;;;;28.30;56.30;;;;;;5085915;27;44501;-80
2023/08/18 00:19:14;;;;;;;;;;;28.20;56.70;;;;;;5085965;27;42956;-83
2023/08/18 00:21:40;;;;;;;;;;;28.30;56.70;;;;;;5085175;27;43736;-79
2023/08/18 00:24:05;;;;;;;;;;;28.20;57.20;;;;;;5086880;27;42965;-82
2023/08/18 00:26:31;;;;;;;;;;;28.20;57.40;;;;;;5100800;27;42849;-79
2023/08/18 00:28:56;;;;;;;;;;;28.20;57.60;;;;;;5095591;27;42979;-79
2023/08/18 00:31:23;;;;;;;;;;;28.20;58.00;;;;;;5100957;27;42864;-78
2023/08/18 00:33:49;;;;;;;;;;;28.30;57.80;;;;;;5106425;27;42870;-80
2023/08/18 00:36:14;;;;;;;;;;;28.30;57.80;;;;;;5069200;27;43024;-79
2023/08/18 00:38:40;;;;;;;;;;;28.30;58.10;;;;;;5083650;27;43056;-81
2023/08/18 00:41:05;;;;;;;;;;;28.30;58.30;;;;;;5083214;27;43771;-81
2023/08/18 00:43:31;;;;;;;;;;;28.20;58.50;;;;;;5083795;27;42993;-79
2023/08/18 00:45:57;;;;;;;;;;;28.20;58.90;;;;;;5082923;27;43390;-82
2023/08/18 00:48:23;;;;;;;;;;;28.10;58.80;;;;;;5083790;27;42921;-79
2023/08/18 00:50:48;;;;;;;;;;;28.20;59.00;;;;;;5084825;27;43181;-79
2023/08/18 00:53:14;;;;;;;;;;;28.20;59.30;;;;;;5085926;27;43486;-79
2023/08/18 00:55:40;;;;;;;;;;;28.30;59.20;;;;;;5086628;27;43574;-79
2023/08/18 00:58:05;;;;;;;;;;;28.20;58.60;;;;;;5119381;27;43082;-80
2023/08/18 01:00:31;;;;;;;;;;;28.20;58.80;;;;;;5086448;27;43004;-79
2023/08/18 01:02:57;;;;;;;;;;;28.30;59.20;;;;;;5085786;27;42926;-79
2023/08/18 01:05:23;;;;;;;;;;;28.20;59.30;;;;;;5085963;27;42944;-79
2023/08/18 01:07:48;;;;;;;;;;;28.30;57.70;;;;;;5085890;27;43025;-79
2023/08/18 01:10:14;;;;;;;;;;;28.50;56.80;;;;;;5084325;27;43110;-79
2023/08/18 01:13:09;;;;;;;;;;;28.50;56.80;;;;;;5098717;27;42878;-82
2023/08/18 01:15:36;;;;;;;;;;;28.50;56.40;;;;;;5086424;27;43506;-78
2023/08/18 01:18:03;;;;;;;;;;;28.50;56.70;;;;;;5098651;27;42920;-78
2023/08/18 01:20:29;;;;;;;;;;;28.40;56.60;;;;;;5096292;27;43412;-78
2023/08/18 01:22:55;;;;;;;;;;;28.30;56.70;;;;;;5100566;27;43033;-78
2023/08/18 01:25:21;;;;;;;;;;;28.30;56.90;;;;;;5090971;27;42967;-78
2023/08/18 01:27:46;;;;;;;;;;;28.30;56.40;;;;;;5105168;27;43024;-79
2023/08/18 01:30:12;;;;;;;;;;;28.50;56.40;;;;;;5105256;27;43055;-79
2023/08/18 01:32:46;;;;;;;;;;;28.30;56.60;;;;;;5105052;27;43078;-79
2023/08/18 01:35:12;;;;;;;;;;;28.20;55.40;;;;;;5070052;27;44295;-80
2023/08/18 01:37:38;;;;;;;;;;;27.90;55.80;;;;;;5080849;27;43186;-83
2023/08/18 01:40:04;;;;;;;;;;;28.10;56.20;;;;;;5083737;27;43092;-84
2023/08/18 01:42:30;;;;;;;;;;;28.00;56.60;;;;;;5087741;27;43239;-79
2023/08/18 01:45:02;;;;;;;;;;;28.00;57.40;;;;;;5103316;27;43918;-79
2023/08/18 01:47:28;;;;;;;;;;;27.90;57.60;;;;;;5078498;27;43028;-80
2023/08/18 01:49:56;;;;;;;;;;;28.00;58.50;;;;;;5083140;27;64388;-78
2023/08/18 01:52:21;;;;;;;;;;;27.70;58.80;;;;;;5084911;27;42929;-79
2023/08/18 01:54:49;;;;;;;;;;;28.00;59.20;;;;;;5083707;27;42881;-79
2023/08/18 01:57:15;;;;;;;;;;;27.90;59.20;;;;;;5090210;27;43212;-78
2023/08/18 01:59:40;;;;;;;;;;;27.90;59.70;;;;;;5104302;27;43808;-82
2023/08/18 02:02:05;;;;;;;;;;;28.10;59.90;;;;;;5091187;27;43033;-79
2023/08/18 02:04:31;;;;;;;;;;;27.50;59.90;;;;;;5091671;27;43494;-78
2023/08/18 02:06:56;;;;;;;;;;;27.80;60.20;;;;;;5084609;27;43019;-80
2023/08/18 02:09:22;;;;;;;;;;;27.80;60.00;;;;;;5104058;27;43678;-79
2023/08/18 02:11:47;;;;;;;;;;;27.90;60.20;;;;;;5091381;27;42981;-79
2023/08/18 02:14:13;;;;;;;;;;;27.90;60.10;;;;;;5092934;27;44078;-78
2023/08/18 02:16:40;;;;;;;;;;;28.00;59.60;;;;;;5083823;27;42976;-80
2023/08/18 02:19:06;;;;;;;;;;;28.00;59.50;;;;;;5117178;27;43117;-81
2023/08/18 02:21:32;;;;;;;;;;;28.00;60.60;;;;;;5084180;27;43013;-79
2023/08/18 02:23:58;;;;;;;;;;;28.10;59.70;;;;;;5084301;27;43836;-80
2023/08/18 02:26:23;;;;;;;;;;;28.00;59.50;;;;;;5084758;27;43030;-80
2023/08/18 02:28:49;;;;;;;;;;;28.00;59.80;;;;;;5083796;27;43583;-80
2023/08/18 02:31:14;;;;;;;;;;;28.00;59.80;;;;;;5084516;27;43228;-80
2023/08/18 02:33:40;;;;;;;;;;;28.00;59.80;;;;;;5084588;27;43680;-80
2023/08/18 02:36:05;;;;;;;;;;;27.90;60.10;;;;;;5084685;27;42985;-80
2023/08/18 02:38:33;;;;;;;;;;;28.00;60.20;;;;;;5085134;27;43348;-79
2023/08/18 02:40:59;;;;;;;;;;;28.10;59.90;;;;;;5085274;27;42969;-80
2023/08/18 02:43:24;;;;;;;;;;;28.10;59.60;;;;;;5085709;27;42856;-81
2023/08/18 02:45:56;;;;;;;;;;;28.00;59.40;;;;;;5083846;27;42956;-79
2023/08/18 02:48:22;;;;;;;;;;;28.10;58.90;;;;;;5101930;27;43686;-80
2023/08/18 02:50:48;;;;;;;;;;;28.00;58.90;;;;;;5104438;27;42955;-80
2023/08/18 02:53:13;;;;;;;;;;;27.90;58.60;;;;;;5106164;27;43054;-82
2023/08/18 02:55:39;;;;;;;;;;;28.00;58.80;;;;;;5107249;27;42888;-79
2023/08/18 02:58:05;;;;;;;;;;;28.00;58.70;;;;;;5105994;27;43759;-80
2023/08/18 03:00:31;;;;;;;;;;;28.00;58.80;;;;;;5106468;27;43143;-82
2023/08/18 03:02:58;;;;;;;;;;;28.10;58.80;;;;;;5104569;27;42981;-80
2023/08/18 03:05:23;;;;;;;;;;;28.00;58.20;;;;;;5105963;27;43000;-80
2023/08/18 03:07:49;;;;;;;;;;;28.10;57.90;;;;;;5103161;27;44424;-79
2023/08/18 03:10:14;;;;;;;;;;;28.10;57.80;;;;;;5107300;27;42893;-79
2023/08/18 03:12:40;;;;;;;;;;;28.10;58.10;;;;;;5105526;27;43488;-79
2023/08/18 03:15:05;;;;;;;;;;;27.90;58.00;;;;;;5106971;27;43017;-79
2023/08/18 03:17:31;;;;;;;;;;;28.00;57.70;;;;;;5105421;27;42947;-79
2023/08/18 03:19:56;;;;;;;;;;;28.00;58.00;;;;;;5106296;27;43081;-79
2023/08/18 03:22:22;;;;;;;;;;;27.90;57.70;;;;;;5105024;27;43017;-78
2023/08/18 03:24:47;;;;;;;;;;;27.90;58.10;;;;;;5100932;27;43012;-79
2023/08/18 03:27:13;;;;;;;;;;;27.90;57.70;;;;;;5092783;27;44025;-79
2023/08/18 03:29:38;;;;;;;;;;;27.80;57.30;;;;;;5089258;27;43005;-79
2023/08/18 03:32:05;;;;;;;;;;;27.80;57.10;;;;;;5092818;27;42871;-78
2023/08/18 03:34:30;;;;;;;;;;;27.80;56.20;;;;;;5094223;27;43117;-80
2023/08/18 03:36:56;;;;;;;;;;;27.70;56.20;;;;;;5091987;27;43015;-78
2023/08/18 03:39:21;;;;;;;;;;;27.70;56.60;;;;;;5093616;27;42900;-79
2023/08/18 03:41:47;;;;;;;;;;;27.70;56.50;;;;;;5089608;27;43106;-80
2023/08/18 03:44:12;;;;;;;;;;;27.70;56.50;;;;;;5092146;27;43160;-78
2023/08/18 03:46:38;;;;;;;;;;;27.70;56.00;;;;;;5086482;27;43096;-83
2023/08/18 03:49:05;;;;;;;;;;;27.70;56.20;;;;;;5086085;27;42932;-81
2023/08/18 03:51:32;;;;;;;;;;;27.80;55.40;;;;;;5086179;27;43389;-80
2023/08/18 03:53:57;;;;;;;;;;;27.80;55.00;;;;;;5086054;27;43149;-81
2023/08/18 03:56:23;;;;;;;;;;;27.50;55.00;;;;;;5090318;27;43540;-79
2023/08/18 03:58:48;;;;;;;;;;;27.70;55.20;;;;;;5095326;27;42929;-83
2023/08/18 04:01:14;;;;;;;;;;;27.70;54.90;;;;;;5090636;27;42983;-79
2023/08/18 04:03:42;;;;;;;;;;;27.70;55.20;;;;;;5106445;27;42960;-82
2023/08/18 04:06:07;;;;;;;;;;;27.60;54.90;;;;;;5106502;27;43444;-79
2023/08/18 04:08:33;;;;;;;;;;;27.60;55.40;;;;;;5106262;27;42971;-80
2023/08/18 04:10:59;;;;;;;;;;;27.60;55.40;;;;;;5093714;27;43008;-81
2023/08/18 04:13:25;;;;;;;;;;;27.60;55.40;;;;;;5095752;27;44013;-81
2023/08/18 04:15:50;;;;;;;;;;;27.60;55.20;;;;;;5084275;27;43896;-78
2023/08/18 04:18:16;;;;;;;;;;;27.60;55.20;;;;;;5097639;27;42949;-77
2023/08/18 04:20:41;;;;;;;;;;;27.40;55.10;;;;;;5105150;27;43034;-78
2023/08/18 04:23:07;;;;;;;;;;;27.40;56.30;;;;;;5105909;27;43034;-79
2023/08/18 04:25:32;;;;;;;;;;;27.50;55.50;;;;;;5104729;27;43106;-78
2023/08/18 04:27:58;;;;;;;;;;;27.70;55.40;;;;;;5105565;27;42982;-79
2023/08/18 04:30:23;;;;;;;;;;;27.50;55.30;;;;;;5105917;27;43134;-78
2023/08/18 04:32:50;;;;;;;;;;;27.70;55.20;;;;;;5138460;27;43041;-78
2023/08/18 04:35:16;;;;;;;;;;;27.70;55.40;;;;;;5102217;27;43666;-82
2023/08/18 04:37:41;;;;;;;;;;;27.50;55.30;;;;;;5104690;27;42964;-78
2023/08/18 04:40:07;;;;;;;;;;;27.50;55.80;;;;;;5103130;27;43642;-79
2023/08/18 04:42:33;;;;;;;;;;;27.70;55.40;;;;;;5105646;27;43102;-79
2023/08/18 04:44:58;;;;;;;;;;;27.40;55.60;;;;;;5099527;27;42868;-83
2023/08/18 04:47:24;;;;;;;;;;;27.50;55.90;;;;;;5085226;27;42962;-78
2023/08/18 04:49:49;;;;;;;;;;;27.60;56.70;;;;;;5084278;27;43916;-79
2023/08/18 04:52:15;;;;;;;;;;;27.30;56.40;;;;;;5089074;27;42975;-78
2023/08/18 04:54:40;;;;;;;;;;;27.70;56.60;;;;;;5089126;27;43459;-78
2023/08/18 04:57:07;;;;;;;;;;;27.50;56.50;;;;;;5092942;27;42980;-82
2023/08/18 04:59:33;;;;;;;;;;;27.50;56.60;;;;;;5091021;27;43403;-79
2023/08/18 05:01:58;;;;;;;;;;;27.40;56.90;;;;;;5090390;27;43138;-79
2023/08/18 05:04:24;;;;;;;;;;;27.30;56.90;;;;;;5095894;27;43416;-79
2023/08/18 05:06:49;;;;;;;;;;;27.40;57.30;;;;;;5102270;27;42983;-81
2023/08/18 05:09:15;;;;;;;;;;;27.30;57.50;;;;;;5078890;28;43878;-88
2023/08/18 05:11:43;;;;;;;;;;;27.20;57.50;;;;;;5083150;27;43123;-92
2023/08/18 05:14:09;;;;;;;;;;;26.90;55.90;;;;;;5086487;27;42991;-82
2023/08/18 05:16:34;;;;;;;;;;;27.30;56.90;;;;;;5093086;27;43668;-83
2023/08/18 05:19:00;;;;;;;;;;;27.30;55.80;;;;;;5089042;27;43074;-85
2023/08/18 05:21:26;;;;;;;;;;;27.40;55.80;;;;;;5089087;27;42960;-91
2023/08/18 05:23:51;;;;;;;;;;;27.30;55.70;;;;;;5123110;27;44518;-87
2023/08/18 05:26:17;;;;;;;;;;;27.40;57.10;;;;;;5085118;27;42985;-88
2023/08/18 05:28:44;;;;;;;;;;;27.40;57.20;;;;;;5084027;28;43687;-83
2023/08/18 05:31:10;;;;;;;;;;;27.40;56.70;;;;;;5089779;27;43198;-83
2023/08/18 05:33:35;;;;;;;;;;;27.30;56.30;;;;;;5091092;27;42889;-84
2023/08/18 05:36:03;;;;;;;;;;;27.30;56.80;;;;;;5103699;27;42986;-84
2023/08/18 05:38:28;;;;;;;;;;;28.10;57.10;;;;;;5088168;27;44126;-84
2023/08/18 05:41:02;;;;;;;;;;;27.30;56.80;;;;;;5086276;27;43055;-83
2023/08/18 05:43:28;;;;;;;;;;;27.40;57.00;;;;;;5089569;27;43597;-84
2023/08/18 05:45:53;;;;;;;;;;;27.30;57.20;;;;;;5077666;27;43498;-88
2023/08/18 05:48:19;;;;;;;;;;;27.40;57.20;;;;;;5083507;27;43405;-84
2023/08/18 05:50:44;;;;;;;;;;;27.30;57.20;;;;;;5083907;27;43045;-85
2023/08/18 05:53:10;;;;;;;;;;;27.40;57.50;;;;;;5083142;27;42922;-84
2023/08/18 05:55:35;;;;;;;;;;;27.40;57.20;;;;;;5084014;27;43055;-84
2023/08/18 05:58:02;;;;;;;;;;;27.50;57.10;;;;;;5094327;27;43427;-86
2023/08/18 06:00:28;;;;;;;;;;;27.60;57.10;;;;;;5080970;27;43058;-84
2023/08/18 06:02:54;;;;;;;;;;;27.60;57.00;;;;;;5082913;27;43449;-84
2023/08/18 06:05:19;;;;;;;;;;;27.50;57.00;;;;;;5091174;27;42974;-84
2023/08/18 06:07:45;;;;;;;;;;;26.50;56.50;;;;;;5089400;27;43344;-84
2023/08/18 06:10:11;;;;;;;;;;;27.50;57.30;;;;;;5083265;27;42864;-83
2023/08/18 06:12:37;;;;;;;;;;;27.60;57.10;;;;;;5079930;27;43464;-84
2023/08/18 06:15:04;;;;;;;;;;;27.70;56.90;;;;;;5072531;27;43245;-83
2023/08/18 06:17:29;;;;;;;;;;;27.60;56.60;;;;;;5078691;27;43563;-84
2023/08/18 06:19:55;;;;;;;;;;;27.60;56.90;;;;;;5072730;27;42984;-83
2023/08/18 06:22:20;;;;;;;;;;;27.60;56.90;;;;;;5082709;27;42969;-82
2023/08/18 06:24:46;;;;;;;;;;;28.50;57.20;;;;;;5088479;27;42972;-82
2023/08/18 06:27:11;;;;;;;;;;;27.70;57.00;;;;;;5094592;27;43694;-83
2023/08/18 06:29:38;;;;;;;;;;;27.80;56.90;;;;;;5092425;27;43083;-83
2023/08/18 06:32:03;;;;;;;;;;;27.70;56.30;;;;;;5086764;27;46158;-81
2023/08/18 06:34:29;;;;;;;;;;;27.70;56.50;;;;;;5087618;27;43013;-83
2023/08/18 06:36:54;;;;;;;;;;;27.60;55.70;;;;;;5097234;27;42926;-81
2023/08/18 06:39:20;;;;;;;;;;;27.70;56.40;;;;;;5087813;27;43767;-82
2023/08/18 06:41:45;;;;;;;;;;;27.80;56.50;;;;;;5084835;27;44649;-82
2023/08/18 06:44:12;;;;;;;;;;;27.90;56.20;;;;;;5084135;27;43706;-84
2023/08/18 06:46:37;;;;;;;;;;;27.90;56.00;;;;;;5087791;27;42952;-84
2023/08/18 06:49:03;;;;;;;;;;;28.00;56.30;;;;;;5114608;27;43010;-82
2023/08/18 06:51:28;;;;;;;;;;;27.90;54.90;;;;;;5085124;27;43563;-85
2023/08/18 06:53:54;;;;;;;;;;;28.00;55.40;;;;;;5084620;27;42888;-83
2023/08/18 06:56:19;;;;;;;;;;;27.90;55.50;;;;;;5087266;27;43432;-83
2023/08/18 06:58:45;;;;;;;;;;;28.00;55.50;;;;;;5091584;27;42976;-83
2023/08/18 07:01:10;;;;;;;;;;;28.00;56.20;;;;;;5098747;27;44088;-84
2023/08/18 07:03:36;;;;;;;;;;;28.00;55.70;;;;;;5078278;27;42985;-84
2023/08/18 07:06:02;;;;;;;;;;;28.00;55.30;;;;;;5076908;27;43648;-83
2023/08/18 07:08:27;;;;;;;;;;;28.00;55.10;;;;;;5082897;27;42911;-83
2023/08/18 07:10:53;;;;;;;;;;;27.90;55.00;;;;;;5085833;27;42958;-83
2023/08/18 07:13:21;;;;;;;;;;;28.00;55.10;;;;;;5085297;27;44770;-86
2023/08/18 07:15:47;;;;;;;;;;;27.90;54.30;;;;;;5083123;27;44664;-85
2023/08/18 07:18:19;;;;;;;;;;;27.90;54.50;;;;;;5073882;27;43915;-86
2023/08/18 07:21:08;;;;;;;;;;;25.10;53.00;;;;;;5076612;28;43805;-89
2023/08/18 07:23:38;;;;;;;;;;;28.60;57.00;;;;;;5085789;27;43089;-88
2023/08/18 07:26:04;;;;;;;;;;;27.20;54.70;;;;;;5103564;27;45688;-87
2023/08/18 07:28:33;;;;;;;;;;;28.10;54.40;;;;;;5086135;27;43044;-85
2023/08/18 07:31:03;;;;;;;;;;;27.80;54.80;;;;;;5087007;27;43026;-80
2023/08/18 07:33:29;;;;;;;;;;;28.20;54.90;;;;;;5097899;27;43111;-86
2023/08/18 07:35:55;;;;;;;;;;;28.30;54.60;;;;;;5106103;27;44056;-87
2023/08/18 07:38:21;;;;;;;;;;;28.50;55.60;;;;;;5106595;27;42931;-85
2023/08/18 07:40:48;;;;;;;;;;;28.30;55.00;;;;;;5100232;27;43065;-83
2023/08/18 07:43:14;;;;;;;;;;;28.30;54.90;;;;;;5109214;27;43179;-82
2023/08/18 07:45:39;;;;;;;;;;;28.30;55.00;;;;;;5099961;27;42762;-82
2023/08/18 07:48:05;;;;;;;;;;;28.40;54.90;;;;;;5100635;27;43064;-89
2023/08/18 07:50:31;;;;;;;;;;;28.40;54.70;;;;;;5089362;27;43053;-90
2023/08/18 07:52:56;;;;;;;;;;;28.40;54.70;;;;;;5097365;27;42973;-82
2023/08/18 07:55:22;;;;;;;;;;;28.50;54.70;;;;;;5095306;27;42971;-86
2023/08/18 07:57:48;;;;;;;;;;;28.40;54.40;;;;;;5092746;27;43067;-83
2023/08/18 08:00:17;;;;;;;;;;;28.40;54.10;;;;;;5096389;27;43267;-83
2023/08/18 08:02:43;;;;;;;;;;;28.40;53.90;;;;;;5130980;27;43040;-85
2023/08/18 08:05:09;;;;;;;;;;;28.50;53.90;;;;;;5099977;27;43376;-85
2023/08/18 08:07:34;;;;;;;;;;;29.10;54.50;;;;;;5098387;27;43167;-94
2023/08/18 08:10:03;;;;;;;;;;;28.50;54.10;;;;;;5084221;27;43600;-94
2023/08/18 08:12:32;;;;;;;;;;;28.50;53.90;;;;;;5116422;27;43361;-87
2023/08/18 08:14:58;;;;;;;;;;;28.40;53.70;;;;;;5098410;27;44892;-88
2023/08/18 08:17:24;;;;;;;;;;;28.50;53.30;;;;;;5099981;27;42921;-84
2023/08/18 08:19:49;;;;;;;;;;;28.50;53.90;;;;;;5101483;27;43827;-89
2023/08/18 08:22:16;;;;;;;;;;;28.40;53.80;;;;;;5089745;27;42855;-88
2023/08/18 08:24:44;;;;;;;;;;;28.50;53.70;;;;;;5131346;27;44300;-85
2023/08/18 08:27:10;;;;;;;;;;;28.50;53.30;;;;;;5095269;27;42988;-91
2023/08/18 08:29:36;;;;;;;;;;;28.70;52.90;;;;;;5091613;27;45172;-90
2023/08/18 08:32:01;;;;;;;;;;;28.50;53.90;;;;;;5087592;27;42816;-83
2023/08/18 08:34:27;;;;;;;;;;;28.60;53.70;;;;;;5097318;27;43012;-83
2023/08/18 08:36:53;;;;;;;;;;;28.50;53.40;;;;;;5091180;27;42783;-87
2023/08/18 08:39:18;;;;;;;;;;;28.50;53.70;;;;;;5097017;27;42936;-81
2023/08/18 08:41:44;;;;;;;;;;;28.50;53.40;;;;;;5096414;27;43696;-80
2023/08/18 08:44:09;;;;;;;;;;;28.60;53.60;;;;;;5096213;27;42900;-83
2023/08/18 08:46:36;;;;;;;;;;;28.60;52.60;;;;;;5091687;27;42876;-81
2023/08/18 08:49:04;;;;;;;;;;;28.50;52.50;;;;;;5085596;27;43136;-80
2023/08/18 08:51:31;;;;;;;;;;;28.60;52.40;;;;;;5091486;27;43036;-79
2023/08/18 08:54:00;;;;;;;;;;;28.60;52.10;;;;;;5092074;27;43457;-80
2023/08/18 08:56:28;;;;;;;;;;;28.60;51.90;;;;;;5091290;27;43093;-79
2023/08/18 08:58:54;;;;;;;;;;;28.60;52.10;;;;;;5093399;27;43587;-80
2023/08/18 09:01:22;;;;;;;;;;;28.60;51.60;;;;;;5091290;27;42961;-79
2023/08/18 09:03:48;;;;;;;;;;;28.40;51.10;;;;;;5094405;27;43018;-80
2023/08/18 09:06:14;;;;;;;;;;;28.60;51.50;;;;;;5091445;27;43031;-80
2023/08/18 09:08:39;;;;;;;;;;;28.60;51.70;;;;;;5095008;27;42907;-80
2023/08/18 09:11:05;;;;;;;;;;;28.60;51.70;;;;;;5091630;27;42926;-82
2023/08/18 09:13:30;;;;;;;;;;;28.60;51.30;;;;;;5095441;27;42880;-79
2023/08/18 09:15:56;;;;;;;;;;;28.60;51.20;;;;;;5091057;27;43071;-79
2023/08/18 09:18:22;;;;;;;;;;;28.70;51.20;;;;;;5090199;27;43158;-79
2023/08/18 09:20:47;;;;;;;;;;;28.70;51.20;;;;;;5090510;27;42842;-80
2023/08/18 09:23:13;;;;;;;;;;;28.70;51.10;;;;;;5094238;27;43032;-79
2023/08/18 09:25:38;;;;;;;;;;;28.70;51.30;;;;;;5091502;27;43074;-80
2023/08/18 09:28:04;;;;;;;;;;;28.70;51.40;;;;;;5093581;27;42955;-81
2023/08/18 09:30:30;;;;;;;;;;;28.70;51.50;;;;;;5090867;27;42775;-81
2023/08/18 09:32:56;;;;;;;;;;;28.70;51.00;;;;;;5092428;27;43599;-82
2023/08/18 09:35:22;;;;;;;;;;;28.80;50.90;;;;;;5090585;27;43052;-79
2023/08/18 09:37:54;;;;;;;;;;;28.70;50.50;;;;;;5093428;27;42959;-80
2023/08/18 09:40:20;;;;;;;;;;;28.70;50.60;;;;;;5090025;27;42906;-83
2023/08/18 09:42:45;;;;;;;;;;;28.80;51.10;;;;;;5094373;27;43986;-80
2023/08/18 09:45:11;;;;;;;;;;;28.80;50.80;;;;;;5089814;27;42882;-80
2023/08/18 09:47:37;;;;;;;;;;;28.80;51.10;;;;;;5084629;27;43484;-82
2023/08/18 09:50:04;;;;;;;;;;;28.80;51.00;;;;;;5081257;27;43025;-81
2023/08/18 09:52:33;;;;;;;;;;;28.80;50.90;;;;;;5087885;27;43647;-80
2023/08/18 09:55:01;;;;;;;;;;;28.70;51.00;;;;;;5087498;27;43163;-84
2023/08/18 09:57:34;;;;;;;;;;;28.80;51.10;;;;;;5090509;27;43047;-79
2023/08/18 10:00:00;;;;;;;;;;;28.80;51.10;;;;;;5085200;27;43063;-80
2023/08/18 10:02:30;;;;;;;;;;;28.90;51.40;;;;;;5088829;27;43082;-80
2023/08/18 10:04:56;;;;;;;;;;;28.90;51.20;;;;;;5082720;27;42933;-83
2023/08/18 10:07:23;;;;;;;;;;;28.80;50.90;;;;;;5086822;27;45401;-81
2023/08/18 10:09:49;;;;;;;;;;;28.80;51.00;;;;;;5093449;27;43063;-81
2023/08/18 10:12:14;;;;;;;;;;;28.90;51.70;;;;;;5098724;27;42851;-81
2023/08/18 10:14:41;;;;;;;;;;;28.90;51.80;;;;;;5098813;27;42874;-81
2023/08/18 10:17:07;;;;;;;;;;;28.90;51.60;;;;;;5074313;27;43633;-81
2023/08/18 10:19:44;;;;;;;;;;;28.80;51.20;;;;;;5084219;27;43119;-80
2023/08/18 10:22:10;;;;;;;;;;;28.90;51.10;;;;;;5093714;27;43525;-85
2023/08/18 10:24:36;;;;;;;;;;;28.90;51.70;;;;;;5086162;27;43135;-81
2023/08/18 10:27:01;;;;;;;;;;;28.90;51.60;;;;;;5085917;27;43591;-84
2023/08/18 10:29:27;;;;;;;;;;;28.90;51.20;;;;;;5097248;27;42963;-84
2023/08/18 10:31:53;;;;;;;;;;;29.00;51.40;;;;;;5099450;27;43930;-81
2023/08/18 10:34:21;;;;;;;;;;;28.90;51.30;;;;;;5098417;27;42968;-81
2023/08/18 10:36:46;;;;;;;;;;;28.70;51.40;;;;;;5101482;27;42949;-83
2023/08/18 10:39:32;;;;;;;;;;;28.90;52.20;;;;;;5080434;27;44802;-80
2023/08/18 10:42:05;;;;;;;;;;;28.90;51.30;;;;;;5084513;27;43666;-82
2023/08/18 10:44:30;;;;;;;;;;;28.90;51.30;;;;;;5084785;27;43074;-81
2023/08/18 10:46:57;;;;;;;;;;;29.00;51.90;;;;;;5083767;27;43027;-81
2023/08/18 10:49:23;;;;;;;;;;;28.90;51.90;;;;;;5096993;27;42961;-80
2023/08/18 10:51:52;;;;;;;;;;;28.90;52.10;;;;;;5103521;27;43794;-80
2023/08/18 10:54:18;;;;;;;;;;;28.90;51.50;;;;;;5094262;27;42954;-81
2023/08/18 10:56:44;;;;;;;;;;;29.40;53.60;;;;;;5085924;27;43090;-80
2023/08/18 10:59:09;;;;;;;;;;;29.70;52.80;;;;;;5093345;27;43039;-81
2023/08/18 11:01:35;;;;;;;;;;;29.00;52.50;;;;;;5121414;27;43855;-81
2023/08/18 11:04:03;;;;;;;;;;;28.90;52.40;;;;;;5092946;27;43052;-81
2023/08/18 11:06:29;;;;;;;;;;;29.00;52.30;;;;;;5087162;27;44252;-80
2023/08/18 11:08:55;;;;;;;;;;;29.00;52.30;;;;;;5094161;27;42944;-86
2023/08/18 11:11:20;;;;;;;;;;;29.00;52.40;;;;;;5093442;27;42986;-81
2023/08/18 11:13:46;;;;;;;;;;;28.60;51.60;;;;;;5102397;27;43686;-81
2023/08/18 11:16:12;;;;;;;;;;;28.90;53.70;;;;;;5087971;27;42878;-85
2023/08/18 11:18:41;;;;;;;;;;;29.20;52.90;;;;;;5095662;27;42901;-85
2023/08/18 11:21:07;;;;;;;;;;;29.20;52.80;;;;;;5089350;27;43849;-86
2023/08/18 11:23:33;;;;;;;;;;;29.00;51.80;;;;;;5100653;27;43178;-80
2023/08/18 11:25:59;;;;;;;;;;;29.10;52.60;;;;;;5094842;27;43403;-82
2023/08/18 11:28:25;;;;;;;;;;;29.10;52.30;;;;;;5097483;27;42897;-85
2023/08/18 11:30:53;;;;;;;;;;;29.10;52.10;;;;;;5104304;27;43838;-81
2023/08/18 11:33:18;;;;;;;;;;;29.10;51.90;;;;;;5099426;27;43054;-82
2023/08/18 11:35:44;;;;;;;;;;;29.00;53.60;;;;;;5091829;27;44051;-80
2023/08/18 11:38:09;;;;;;;;;;;29.10;52.30;;;;;;5093165;27;43158;-84
2023/08/18 11:40:36;;;;;;;;;;;29.00;52.50;;;;;;5096436;27;42982;-81
2023/08/18 11:43:07;;;;;;;;;;;29.00;52.30;;;;;;5086407;27;42916;-81
2023/08/18 11:45:33;;;;;;;;;;;29.00;52.30;;;;;;5085513;27;43581;-85
2023/08/18 11:48:00;;;;;;;;;;;29.10;52.40;;;;;;5085983;27;43090;-81
2023/08/18 11:50:29;;;;;;;;;;;29.10;52.40;;;;;;5086872;27;43020;-80
2023/08/18 11:52:54;;;;;;;;;;;29.10;52.40;;;;;;5088044;27;42947;-81
2023/08/18 11:55:33;;;;;;;;;;;29.10;52.60;;;;;;5087416;27;44244;-82
2023/08/18 11:58:03;;;;;;;;;;;29.10;52.30;;;;;;5089562;27;43411;-81
2023/08/18 12:00:35;;;;;;;;;;;28.60;52.20;;;;;;5088071;27;42930;-81
2023/08/18 12:03:02;;;;;;;;;;;29.10;52.40;;;;;;5087368;27;43330;-83
2023/08/18 12:05:28;;;;;;;;;;;29.20;52.70;;;;;;5086916;27;43099;-83
2023/08/18 12:07:54;;;;;;;;;;;29.10;52.70;;;;;;5090867;27;43063;-83
2023/08/18 12:10:20;;;;;;;;;;;29.10;52.70;;;;;;5087200;27;42980;-81
2023/08/18 12:12:52;;;;;;;;;;;29.10;52.60;;;;;;5093856;27;43014;-79
2023/08/18 12:15:18;;;;;;;;;;;29.10;52.50;;;;;;5095547;27;43445;-81
2023/08/18 12:17:44;;;;;;;;;;;29.20;52.50;;;;;;5090466;27;43283;-85
2023/08/18 12:20:09;;;;;;;;;;;29.10;52.80;;;;;;5093889;27;43455;-81
2023/08/18 12:22:35;;;;;;;;;;;29.10;53.00;;;;;;5085845;27;43007;-80
2023/08/18 12:25:02;;;;;;;;;;;29.20;53.00;;;;;;5091629;27;43872;-81
2023/08/18 12:27:29;;;;;;;;;;;29.10;52.90;;;;;;5092030;27;43063;-83
2023/08/18 12:29:55;;;;;;;;;;;29.20;53.10;;;;;;5087138;27;43163;-83
2023/08/18 12:32:21;;;;;;;;;;;29.20;53.30;;;;;;5098701;27;43002;-79
2023/08/18 12:34:50;;;;;;;;;;;29.10;52.70;;;;;;5092063;27;42918;-83
2023/08/18 12:37:18;;;;;;;;;;;29.20;52.70;;;;;;5091468;27;43066;-83
2023/08/18 12:39:44;;;;;;;;;;;29.20;52.70;;;;;;5104558;27;42983;-83
2023/08/18 12:42:10;;;;;;;;;;;29.10;52.60;;;;;;5105284;27;42993;-84
2023/08/18 12:44:37;;;;;;;;;;;29.20;52.80;;;;;;5102394;27;43791;-81
2023/08/18 12:47:03;;;;;;;;;;;29.20;52.90;;;;;;5073619;27;42957;-79
2023/08/18 12:49:30;;;;;;;;;;;29.20;53.00;;;;;;5087444;27;43595;-83
2023/08/18 12:51:56;;;;;;;;;;;29.20;53.10;;;;;;5097662;27;42973;-79
2023/08/18 12:54:22;;;;;;;;;;;29.20;53.10;;;;;;5105082;27;42943;-80
2023/08/18 12:56:48;;;;;;;;;;;29.30;53.30;;;;;;5102445;27;43044;-79
2023/08/18 12:59:13;;;;;;;;;;;29.20;53.40;;;;;;5103273;27;43028;-83
2023/08/18 13:01:39;;;;;;;;;;;29.20;53.40;;;;;;5103354;27;43064;-82
2023/08/18 13:04:05;;;;;;;;;;;29.20;53.30;;;;;;5104421;27;42972;-80
2023/08/18 13:06:30;;;;;;;;;;;29.30;53.20;;;;;;5102594;27;43005;-80
2023/08/18 13:08:56;;;;;;;;;;;29.20;53.20;;;;;;5105053;27;43577;-81
2023/08/18 13:11:21;;;;;;;;;;;29.20;53.00;;;;;;5091401;27;42950;-84
2023/08/18 13:13:47;;;;;;;;;;;29.20;53.00;;;;;;5102879;27;42937;-80
2023/08/18 13:16:12;;;;;;;;;;;29.20;52.80;;;;;;5097159;27;42956;-84
2023/08/18 13:18:38;;;;;;;;;;;29.20;52.90;;;;;;5096321;27;43439;-80
2023/08/18 13:21:03;;;;;;;;;;;29.20;52.80;;;;;;5089631;27;42935;-82
2023/08/18 13:23:29;;;;;;;;;;;29.20;52.80;;;;;;5095703;27;43583;-80
2023/08/18 13:25:55;;;;;;;;;;;29.30;52.70;;;;;;5096313;27;42978;-83
2023/08/18 13:28:21;;;;;;;;;;;29.30;52.70;;;;;;5090560;27;43672;-79
2023/08/18 13:30:46;;;;;;;;;;;29.20;52.60;;;;;;5089219;27;43212;-81
2023/08/18 13:33:12;;;;;;;;;;;29.30;53.10;;;;;;5094672;27;43072;-80
2023/08/18 13:35:37;;;;;;;;;;;29.20;52.90;;;;;;5094413;27;42972;-80
2023/08/18 13:38:03;;;;;;;;;;;29.30;52.90;;;;;;5088391;27;44121;-79
2023/08/18 13:40:30;;;;;;;;;;;29.20;52.80;;;;;;5089789;27;43050;-80
2023/08/18 13:42:56;;;;;;;;;;;29.30;52.80;;;;;;5096307;27;45339;-83
2023/08/18 13:45:21;;;;;;;;;;;29.30;53.00;;;;;;5091026;27;42991;-79
2023/08/18 13:47:47;;;;;;;;;;;29.20;52.70;;;;;;5097250;27;43437;-81
2023/08/18 13:50:12;;;;;;;;;;;29.30;52.80;;;;;;5097213;27;42945;-79
2023/08/18 13:52:38;;;;;;;;;;;29.30;52.80;;;;;;5090564;27;42984;-80
2023/08/18 13:55:04;;;;;;;;;;;29.30;53.00;;;;;;5090255;27;42930;-81
2023/08/18 13:57:29;;;;;;;;;;;29.30;52.60;;;;;;5099723;27;43881;-80
2023/08/18 13:59:55;;;;;;;;;;;29.30;52.40;;;;;;5102808;27;43057;-81
2023/08/18 14:02:20;;;;;;;;;;;29.30;52.50;;;;;;5093690;27;43518;-80
2023/08/18 14:04:46;;;;;;;;;;;29.30;52.60;;;;;;5101102;27;43070;-80
2023/08/18 14:07:11;;;;;;;;;;;29.30;52.50;;;;;;5103262;27;43946;-84
2023/08/18 14:09:36;;;;;;;;;;;29.30;52.60;;;;;;5101584;27;42914;-83
2023/08/18 14:12:03;;;;;;;;;;;29.30;52.60;;;;;;5097969;27;42961;-80